sensor_id;sensor_type;location;lat;lon;timestamp;temperature;humidity
41168;DHT22;26906;45.658;9.272;2023-03-01T06:34:11;3.90;99.90
41168;DHT22;26906;45.658;9.272;2023-03-01T06:36:40;4.40;99.90
41168;DHT22;26906;45.658;9.272;2023-03-01T06:39:06;4.20;99.90
41168;DHT22;26906;45.658;9.272;2023-03-01T06:41:32;4.20;99.90
41168;DHT22;26906;45.658;9.272;2023-03-01T06:43:59;4.30;99.90
41168;DHT22;26906;45.658;9.272;2023-03-01T06:46:24;4.40;99.90
41168;DHT22;26906;45.658;9.272;2023-03-01T06:48:50;4.40;99.90
41168;DHT22;26906;45.658;9.272;2023-03-01T06:51:16;4.50;99.90
41168;DHT22;26906;45.658;9.272;2023-03-01T06:53:41;4.50;99.90
41168;DHT22;26906;45.658;9.272;2023-03-01T06:56:09;4.60;99.90
41168;DHT22;26906;45.658;9.272;2023-03-01T06:58:35;4.70;99.90
41168;DHT22;26906;45.658;9.272;2023-03-01T07:01:05;4.90;99.90
41168;DHT22;26906;45.658;9.272;2023-03-01T07:03:31;4.90;99.90
41168;DHT22;26906;45.658;9.272;2023-03-01T07:05:57;4.90;99.90
41168;DHT22;26906;45.658;9.272;2023-03-01T07:08:25;5.50;99.90
41168;DHT22;26906;45.658;9.272;2023-03-01T07:10:58;5.10;99.90
41168;DHT22;26906;45.658;9.272;2023-03-01T07:13:24;5.70;99.90
41168;DHT22;26906;45.658;9.272;2023-03-01T07:15:49;5.40;99.90
41168;DHT22;26906;45.658;9.272;2023-03-01T07:18:15;5.40;99.90
41168;DHT22;26906;45.658;9.272;2023-03-01T07:20:41;5.50;99.90
41168;DHT22;26906;45.658;9.272;2023-03-01T07:23:06;5.50;99.90
41168;DHT22;26906;45.658;9.272;2023-03-01T07:25:33;5.60;99.90
41168;DHT22;26906;45.658;9.272;2023-03-01T07:27:59;5.90;99.90
41168;DHT22;26906;45.658;9.272;2023-03-01T07:30:25;5.80;99.90
41168;DHT22;26906;45.658;9.272;2023-03-01T07:32:53;5.80;99.90
41168;DHT22;26906;45.658;9.272;2023-03-01T07:35:18;6.00;99.90
41168;DHT22;26906;45.658;9.272;2023-03-01T07:37:44;6.10;99.90
41168;DHT22;26906;45.658;9.272;2023-03-01T07:40:11;6.90;99.90
41168;DHT22;26906;45.658;9.272;2023-03-01T07:42:36;6.40;99.90
41168;DHT22;26906;45.658;9.272;2023-03-01T07:45:04;6.40;99.90
41168;DHT22;26906;45.658;9.272;2023-03-01T07:47:31;6.50;99.90
41168;DHT22;26906;45.658;9.272;2023-03-01T07:49:56;6.60;99.90
41168;DHT22;26906;45.658;9.272;2023-03-01T07:52:22;6.50;99.90
41168;DHT22;26906;45.658;9.272;2023-03-01T07:54:48;7.00;99.90
41168;DHT22;26906;45.658;9.272;2023-03-01T07:57:14;6.50;99.90
41168;DHT22;26906;45.658;9.272;2023-03-01T07:59:40;6.40;99.90
41168;DHT22;26906;45.658;9.272;2023-03-01T08:02:09;6.40;99.90
41168;DHT22;26906;45.658;9.272;2023-03-01T08:04:35;6.50;99.90
41168;DHT22;26906;45.658;9.272;2023-03-01T08:07:00;6.50;99.90
41168;DHT22;26906;45.658;9.272;2023-03-01T08:09:26;6.50;99.90
41168;DHT22;26906;45.658;9.272;2023-03-01T08:11:52;6.50;99.90
41168;DHT22;26906;45.658;9.272;2023-03-01T08:14:17;6.40;99.90
41168;DHT22;26906;45.658;9.272;2023-03-01T08:16:43;6.80;99.90
41168;DHT22;26906;45.658;9.272;2023-03-01T08:19:11;6.50;99.90
41168;DHT22;26906;45.658;9.272;2023-03-01T08:21:37;6.40;99.90
41168;DHT22;26906;45.658;9.272;2023-03-01T08:24:04;6.40;99.90
41168;DHT22;26906;45.658;9.272;2023-03-01T08:26:32;6.40;99.90
41168;DHT22;26906;45.658;9.272;2023-03-01T08:28:59;6.50;99.90
41168;DHT22;26906;45.658;9.272;2023-03-01T08:31:27;6.50;99.90
41168;DHT22;26906;45.658;9.272;2023-03-01T08:33:56;6.60;99.90
41168;DHT22;26906;45.658;9.272;2023-03-01T08:36:27;6.60;99.90
41168;DHT22;26906;45.658;9.272;2023-03-01T08:38:54;6.70;99.90
41168;DHT22;26906;45.658;9.272;2023-03-01T08:41:20;6.80;99.90
41168;DHT22;26906;45.658;9.272;2023-03-01T08:43:46;6.80;99.90
41168;DHT22;26906;45.658;9.272;2023-03-01T08:46:12;7.60;99.90
41168;DHT22;26906;45.658;9.272;2023-03-01T08:48:38;7.30;99.90
41168;DHT22;26906;45.658;9.272;2023-03-01T08:51:14;7.40;99.90
41168;DHT22;26906;45.658;9.272;2023-03-01T08:53:40;7.70;99.90
41168;DHT22;26906;45.658;9.272;2023-03-01T08:56:06;8.00;99.90
41168;DHT22;26906;45.658;9.272;2023-03-01T08:58:32;8.10;99.90
41168;DHT22;26906;45.658;9.272;2023-03-01T09:00:57;8.20;99.90
41168;DHT22;26906;45.658;9.272;2023-03-01T09:03:24;8.30;99.90
41168;DHT22;26906;45.658;9.272;2023-03-01T09:05:51;8.20;99.90
41168;DHT22;26906;45.658;9.272;2023-03-01T09:08:17;8.20;99.90
41168;DHT22;26906;45.658;9.272;2023-03-01T09:10:43;8.20;99.90
41168;DHT22;26906;45.658;9.272;2023-03-01T09:13:09;8.20;99.90
41168;DHT22;26906;45.658;9.272;2023-03-01T09:15:37;8.30;99.90
41168;DHT22;26906;45.658;9.272;2023-03-01T09:18:03;8.40;99.90
41168;DHT22;26906;45.658;9.272;2023-03-01T09:20:30;8.40;99.90
41168;DHT22;26906;45.658;9.272;2023-03-01T09:22:57;8.40;99.90
41168;DHT22;26906;45.658;9.272;2023-03-01T09:25:22;8.50;99.90
41168;DHT22;26906;45.658;9.272;2023-03-01T09:27:51;8.80;99.90
41168;DHT22;26906;45.658;9.272;2023-03-01T09:30:17;8.70;99.90
41168;DHT22;26906;45.658;9.272;2023-03-01T09:32:43;8.80;99.90
41168;DHT22;26906;45.658;9.272;2023-03-01T09:35:10;9.20;99.90
41168;DHT22;26906;45.658;9.272;2023-03-01T09:37:37;9.60;99.90
41168;DHT22;26906;45.658;9.272;2023-03-01T09:40:06;9.70;99.90
41168;DHT22;26906;45.658;9.272;2023-03-01T09:42:34;9.90;99.90
41168;DHT22;26906;45.658;9.272;2023-03-01T09:45:14;9.70;99.90
41168;DHT22;26906;45.658;9.272;2023-03-01T09:47:44;9.60;99.90
41168;DHT22;26906;45.658;9.272;2023-03-01T09:52:59;9.40;99.90
41168;DHT22;26906;45.658;9.272;2023-03-01T09:55:31;9.50;99.90
41168;DHT22;26906;45.658;9.272;2023-03-01T10:00:50;9.30;99.90
41168;DHT22;26906;45.658;9.272;2023-03-01T10:03:27;9.40;99.90
41168;DHT22;26906;45.658;9.272;2023-03-01T10:08:43;9.50;99.90
41168;DHT22;26906;45.658;9.272;2023-03-01T10:11:24;9.40;99.90
41168;DHT22;26906;45.658;9.272;2023-03-01T10:14:16;9.50;99.90
41168;DHT22;26906;45.658;9.272;2023-03-01T10:16:58;9.40;99.90
41168;DHT22;26906;45.658;9.272;2023-03-01T10:19:41;9.50;99.90
41168;DHT22;26906;45.658;9.272;2023-03-01T10:22:24;9.40;99.90
41168;DHT22;26906;45.658;9.272;2023-03-01T10:24:54;9.50;99.90
41168;DHT22;26906;45.658;9.272;2023-03-01T10:27:37;9.90;99.90
41168;DHT22;26906;45.658;9.272;2023-03-01T10:32:35;10.30;99.90
41168;DHT22;26906;45.658;9.272;2023-03-01T10:35:00;10.40;99.90
41168;DHT22;26906;45.658;9.272;2023-03-01T10:37:27;10.70;99.90
41168;DHT22;26906;45.658;9.272;2023-03-01T10:39:58;11.00;99.90
41168;DHT22;26906;45.658;9.272;2023-03-01T10:42:29;11.20;99.90
41168;DHT22;26906;45.658;9.272;2023-03-01T10:44:56;11.50;99.90
41168;DHT22;26906;45.658;9.272;2023-03-01T10:47:26;11.70;99.90
41168;DHT22;26906;45.658;9.272;2023-03-01T10:50:04;11.90;99.90
41168;DHT22;26906;45.658;9.272;2023-03-01T10:52:35;11.70;99.90
41168;DHT22;26906;45.658;9.272;2023-03-01T10:55:26;11.70;99.90
41168;DHT22;26906;45.658;9.272;2023-03-01T11:00:32;11.40;99.90
41168;DHT22;26906;45.658;9.272;2023-03-01T11:05:25;11.30;99.90
41168;DHT22;26906;45.658;9.272;2023-03-01T11:07:58;11.30;99.90
41168;DHT22;26906;45.658;9.272;2023-03-01T11:10:26;11.50;99.90
41168;DHT22;26906;45.658;9.272;2023-03-01T11:13:15;11.50;99.90
41168;DHT22;26906;45.658;9.272;2023-03-01T11:18:26;11.60;99.90
41168;DHT22;26906;45.658;9.272;2023-03-01T11:20:55;11.50;99.90
41168;DHT22;26906;45.658;9.272;2023-03-01T11:23:21;11.70;99.90
41168;DHT22;26906;45.658;9.272;2023-03-01T11:26:00;11.80;99.90
41168;DHT22;26906;45.658;9.272;2023-03-01T11:28:30;12.10;99.90
41168;DHT22;26906;45.658;9.272;2023-03-01T11:31:00;12.10;99.90
41168;DHT22;26906;45.658;9.272;2023-03-01T11:33:33;12.20;99.90
41168;DHT22;26906;45.658;9.272;2023-03-01T11:38:40;12.30;99.90
41168;DHT22;26906;45.658;9.272;2023-03-01T11:41:26;12.30;99.90
41168;DHT22;26906;45.658;9.272;2023-03-01T11:44:01;12.20;99.90
41168;DHT22;26906;45.658;9.272;2023-03-01T11:57:56;12.60;99.90
41168;DHT22;26906;45.658;9.272;2023-03-01T12:03:49;12.50;99.90
41168;DHT22;26906;45.658;9.272;2023-03-01T12:09:11;12.60;99.90
41168;DHT22;26906;45.658;9.272;2023-03-01T12:18:13;12.70;99.90
41168;DHT22;26906;45.658;9.272;2023-03-01T12:22:01;12.70;99.90
41168;DHT22;26906;45.658;9.272;2023-03-01T12:24:10;12.60;99.90
41168;DHT22;26906;45.658;9.272;2023-03-01T12:27:12;12.50;99.90
41168;DHT22;26906;45.658;9.272;2023-03-01T12:32:35;12.90;99.90
41168;DHT22;26906;45.658;9.272;2023-03-01T12:37:47;13.00;99.90
41168;DHT22;26906;45.658;9.272;2023-03-01T12:43:50;13.00;99.90
41168;DHT22;26906;45.658;9.272;2023-03-01T12:52:04;13.00;99.90
41168;DHT22;26906;45.658;9.272;2023-03-01T12:54:37;13.00;99.90
41168;DHT22;26906;45.658;9.272;2023-03-01T12:57:14;13.10;99.90
41168;DHT22;26906;45.658;9.272;2023-03-01T13:02:47;13.00;99.90
41168;DHT22;26906;45.658;9.272;2023-03-01T13:05:43;13.00;99.90
41168;DHT22;26906;45.658;9.272;2023-03-01T13:08:21;13.00;99.90
41168;DHT22;26906;45.658;9.272;2023-03-01T13:11:02;13.00;99.90
41168;DHT22;26906;45.658;9.272;2023-03-01T13:13:29;12.70;99.90
41168;DHT22;26906;45.658;9.272;2023-03-01T13:15:56;12.60;99.90
41168;DHT22;26906;45.658;9.272;2023-03-01T13:20:56;12.80;99.90
41168;DHT22;26906;45.658;9.272;2023-03-01T13:26:14;12.80;99.90
41168;DHT22;26906;45.658;9.272;2023-03-01T13:34:00;12.80;99.90
41168;DHT22;26906;45.658;9.272;2023-03-01T13:39:00;12.90;99.90
41168;DHT22;26906;45.658;9.272;2023-03-01T13:49:55;12.60;99.90
41168;DHT22;26906;45.658;9.272;2023-03-01T13:55:00;12.80;99.90
41168;DHT22;26906;45.658;9.272;2023-03-01T13:57:33;12.70;99.90
41168;DHT22;26906;45.658;9.272;2023-03-01T13:59:59;12.60;99.90
41168;DHT22;26906;45.658;9.272;2023-03-01T14:02:25;12.40;99.90
41168;DHT22;26906;45.658;9.272;2023-03-01T14:04:58;12.30;99.90
41168;DHT22;26906;45.658;9.272;2023-03-01T14:07:25;12.40;99.90
41168;DHT22;26906;45.658;9.272;2023-03-01T14:10:00;12.20;99.90
41168;DHT22;26906;45.658;9.272;2023-03-01T14:17:49;12.20;99.90
41168;DHT22;26906;45.658;9.272;2023-03-01T14:22:46;12.20;99.90
41168;DHT22;26906;45.658;9.272;2023-03-01T14:27:56;12.10;99.90
41168;DHT22;26906;45.658;9.272;2023-03-01T14:30:25;11.90;99.90
41168;DHT22;26906;45.658;9.272;2023-03-01T14:32:54;11.80;99.90
41168;DHT22;26906;45.658;9.272;2023-03-01T14:35:23;11.80;99.90
41168;DHT22;26906;45.658;9.272;2023-03-01T14:37:49;11.70;99.90
41168;DHT22;26906;45.658;9.272;2023-03-01T14:40:33;11.70;99.90
41168;DHT22;26906;45.658;9.272;2023-03-01T14:43:04;11.70;99.90
41168;DHT22;26906;45.658;9.272;2023-03-01T14:45:33;11.60;99.90
41168;DHT22;26906;45.658;9.272;2023-03-01T14:48:01;11.60;99.90
41168;DHT22;26906;45.658;9.272;2023-03-01T14:50:32;11.70;99.90
41168;DHT22;26906;45.658;9.272;2023-03-01T14:53:03;11.80;99.90
41168;DHT22;26906;45.658;9.272;2023-03-01T14:55:38;11.80;99.90
41168;DHT22;26906;45.658;9.272;2023-03-01T14:58:12;11.80;99.90
41168;DHT22;26906;45.658;9.272;2023-03-01T15:00:39;11.80;99.90
41168;DHT22;26906;45.658;9.272;2023-03-01T15:03:35;11.80;99.90
41168;DHT22;26906;45.658;9.272;2023-03-01T15:06:03;11.80;99.90
41168;DHT22;26906;45.658;9.272;2023-03-01T15:08:31;11.80;99.90
41168;DHT22;26906;45.658;9.272;2023-03-01T15:11:35;11.80;99.90
41168;DHT22;26906;45.658;9.272;2023-03-01T15:14:41;11.60;99.90
41168;DHT22;26906;45.658;9.272;2023-03-01T15:17:26;11.60;99.90
41168;DHT22;26906;45.658;9.272;2023-03-01T15:19:53;11.60;99.90
41168;DHT22;26906;45.658;9.272;2023-03-01T15:22:19;11.40;99.90
41168;DHT22;26906;45.658;9.272;2023-03-01T15:24:48;11.50;99.90
41168;DHT22;26906;45.658;9.272;2023-03-01T15:27:17;11.40;99.90
41168;DHT22;26906;45.658;9.272;2023-03-01T15:29:50;11.30;99.90
41168;DHT22;26906;45.658;9.272;2023-03-01T15:32:28;11.20;99.90
41168;DHT22;26906;45.658;9.272;2023-03-01T15:34:54;11.10;99.90
41168;DHT22;26906;45.658;9.272;2023-03-01T15:37:53;11.10;99.90
41168;DHT22;26906;45.658;9.272;2023-03-01T15:40:29;11.10;99.90
41168;DHT22;26906;45.658;9.272;2023-03-01T15:43:02;11.20;99.90
41168;DHT22;26906;45.658;9.272;2023-03-01T15:45:30;11.10;99.90
41168;DHT22;26906;45.658;9.272;2023-03-01T15:48:14;10.90;99.90
41168;DHT22;26906;45.658;9.272;2023-03-01T15:50:43;10.80;99.90
41168;DHT22;26906;45.658;9.272;2023-03-01T15:53:13;10.80;99.90
41168;DHT22;26906;45.658;9.272;2023-03-01T15:55:40;10.90;99.90
41168;DHT22;26906;45.658;9.272;2023-03-01T15:58:13;11.10;99.90
41168;DHT22;26906;45.658;9.272;2023-03-01T16:00:44;10.90;99.90
41168;DHT22;26906;45.658;9.272;2023-03-01T16:03:16;10.80;99.90
41168;DHT22;26906;45.658;9.272;2023-03-01T16:05:48;10.90;99.90
41168;DHT22;26906;45.658;9.272;2023-03-01T16:08:14;10.90;99.90
41168;DHT22;26906;45.658;9.272;2023-03-01T16:10:41;10.90;99.90
41168;DHT22;26906;45.658;9.272;2023-03-01T16:13:11;10.90;99.90
41168;DHT22;26906;45.658;9.272;2023-03-01T16:15:37;10.90;99.90
41168;DHT22;26906;45.658;9.272;2023-03-01T16:18:05;10.90;99.90
41168;DHT22;26906;45.658;9.272;2023-03-01T16:20:33;10.90;99.90
41168;DHT22;26906;45.658;9.272;2023-03-01T16:23:07;10.90;99.90
41168;DHT22;26906;45.658;9.272;2023-03-01T16:25:33;11.10;99.90
41168;DHT22;26906;45.658;9.272;2023-03-01T16:27:59;10.80;99.90
41168;DHT22;26906;45.658;9.272;2023-03-01T16:30:29;10.60;99.90
41168;DHT22;26906;45.658;9.272;2023-03-01T16:32:55;10.50;99.90
41168;DHT22;26906;45.658;9.272;2023-03-01T16:35:21;10.60;99.90
41168;DHT22;26906;45.658;9.272;2023-03-01T16:37:47;10.60;99.90
41168;DHT22;26906;45.658;9.272;2023-03-01T16:40:25;10.60;99.90
41168;DHT22;26906;45.658;9.272;2023-03-01T16:42:52;10.60;99.90
41168;DHT22;26906;45.658;9.272;2023-03-01T16:45:19;10.70;99.90
41168;DHT22;26906;45.658;9.272;2023-03-01T16:47:47;10.60;99.90
41168;DHT22;26906;45.658;9.272;2023-03-01T16:50:12;10.50;99.90
41168;DHT22;26906;45.658;9.272;2023-03-01T16:52:38;10.60;99.90
41168;DHT22;26906;45.658;9.272;2023-03-01T16:55:06;10.50;99.90
41168;DHT22;26906;45.658;9.272;2023-03-01T16:57:37;10.50;99.90
41168;DHT22;26906;45.658;9.272;2023-03-01T17:00:04;10.50;99.90
41168;DHT22;26906;45.658;9.272;2023-03-01T17:02:36;10.40;99.90
41168;DHT22;26906;45.658;9.272;2023-03-01T17:05:02;10.40;99.90
41168;DHT22;26906;45.658;9.272;2023-03-01T17:07:29;10.40;99.90
41168;DHT22;26906;45.658;9.272;2023-03-01T17:09:59;10.30;99.90
41168;DHT22;26906;45.658;9.272;2023-03-01T17:12:25;10.40;99.90
41168;DHT22;26906;45.658;9.272;2023-03-01T17:14:52;10.40;99.90
41168;DHT22;26906;45.658;9.272;2023-03-01T17:17:18;10.30;99.90
41168;DHT22;26906;45.658;9.272;2023-03-01T17:19:44;10.20;99.90
41168;DHT22;26906;45.658;9.272;2023-03-01T17:22:11;10.30;99.90
41168;DHT22;26906;45.658;9.272;2023-03-01T17:24:39;10.10;99.90
41168;DHT22;26906;45.658;9.272;2023-03-01T17:27:06;10.10;99.90
41168;DHT22;26906;45.658;9.272;2023-03-01T17:29:33;10.10;99.90
41168;DHT22;26906;45.658;9.272;2023-03-01T17:31:59;10.20;99.90
41168;DHT22;26906;45.658;9.272;2023-03-01T17:34:25;10.20;99.90
41168;DHT22;26906;45.658;9.272;2023-03-01T17:36:51;10.20;99.90
41168;DHT22;26906;45.658;9.272;2023-03-01T17:39:18;10.30;99.90
41168;DHT22;26906;45.658;9.272;2023-03-01T17:41:54;10.30;99.90
41168;DHT22;26906;45.658;9.272;2023-03-01T17:44:20;10.20;99.90
41168;DHT22;26906;45.658;9.272;2023-03-01T17:46:46;10.10;99.90
41168;DHT22;26906;45.658;9.272;2023-03-01T17:49:12;10.10;99.90
41168;DHT22;26906;45.658;9.272;2023-03-01T17:51:38;9.80;99.90
41168;DHT22;26906;45.658;9.272;2023-03-01T17:54:04;9.30;99.90
41168;DHT22;26906;45.658;9.272;2023-03-01T17:56:35;9.30;99.90
41168;DHT22;26906;45.658;9.272;2023-03-01T17:59:04;9.20;99.90
41168;DHT22;26906;45.658;9.272;2023-03-01T18:01:29;9.40;99.90
41168;DHT22;26906;45.658;9.272;2023-03-01T18:03:55;9.20;99.90
41168;DHT22;26906;45.658;9.272;2023-03-01T18:06:26;9.20;99.90
41168;DHT22;26906;45.658;9.272;2023-03-01T18:08:55;9.10;99.90
41168;DHT22;26906;45.658;9.272;2023-03-01T18:11:22;8.80;99.90
41168;DHT22;26906;45.658;9.272;2023-03-01T18:13:48;8.80;99.90
41168;DHT22;26906;45.658;9.272;2023-03-01T18:16:17;8.80;99.90
41168;DHT22;26906;45.658;9.272;2023-03-01T18:18:43;8.80;99.90
41168;DHT22;26906;45.658;9.272;2023-03-01T18:21:10;8.70;99.90
41168;DHT22;26906;45.658;9.272;2023-03-01T18:23:36;8.80;99.90
41168;DHT22;26906;45.658;9.272;2023-03-01T18:26:09;8.80;99.90
41168;DHT22;26906;45.658;9.272;2023-03-01T18:28:36;8.80;99.90
41168;DHT22;26906;45.658;9.272;2023-03-01T18:31:05;8.90;99.90
41168;DHT22;26906;45.658;9.272;2023-03-01T18:33:38;8.90;99.90
41168;DHT22;26906;45.658;9.272;2023-03-01T18:36:04;8.80;99.90
41168;DHT22;26906;45.658;9.272;2023-03-01T18:38:31;8.70;99.90
41168;DHT22;26906;45.658;9.272;2023-03-01T18:40:57;8.70;99.90
41168;DHT22;26906;45.658;9.272;2023-03-01T18:43:24;8.70;99.90
41168;DHT22;26906;45.658;9.272;2023-03-01T18:45:58;8.80;99.90
41168;DHT22;26906;45.658;9.272;2023-03-01T18:48:25;8.80;99.90
41168;DHT22;26906;45.658;9.272;2023-03-01T18:50:51;8.80;99.90
41168;DHT22;26906;45.658;9.272;2023-03-01T18:53:16;8.70;99.90
41168;DHT22;26906;45.658;9.272;2023-03-01T18:55:42;8.70;99.90
41168;DHT22;26906;45.658;9.272;2023-03-01T18:58:08;8.70;99.90
41168;DHT22;26906;45.658;9.272;2023-03-01T19:00:34;8.70;99.90
41168;DHT22;26906;45.658;9.272;2023-03-01T19:03:00;8.60;99.90
41168;DHT22;26906;45.658;9.272;2023-03-01T19:05:27;8.60;99.90
41168;DHT22;26906;45.658;9.272;2023-03-01T19:07:53;8.50;99.90
41168;DHT22;26906;45.658;9.272;2023-03-01T19:10:19;8.40;99.90
41168;DHT22;26906;45.658;9.272;2023-03-01T19:12:44;8.50;99.90
41168;DHT22;26906;45.658;9.272;2023-03-01T19:15:11;8.60;99.90
41168;DHT22;26906;45.658;9.272;2023-03-01T19:17:37;8.50;99.90
41168;DHT22;26906;45.658;9.272;2023-03-01T19:20:03;8.60;99.90
41168;DHT22;26906;45.658;9.272;2023-03-01T19:22:29;8.60;99.90
41168;DHT22;26906;45.658;9.272;2023-03-01T19:24:55;8.70;99.90
41168;DHT22;26906;45.658;9.272;2023-03-01T19:27:21;8.70;99.90
41168;DHT22;26906;45.658;9.272;2023-03-01T19:29:53;8.70;99.90
41168;DHT22;26906;45.658;9.272;2023-03-01T19:32:19;8.80;99.90
41168;DHT22;26906;45.658;9.272;2023-03-01T19:34:45;8.70;99.90
41168;DHT22;26906;45.658;9.272;2023-03-01T19:37:12;8.60;99.90
41168;DHT22;26906;45.658;9.272;2023-03-01T19:39:38;8.70;99.90
41168;DHT22;26906;45.658;9.272;2023-03-01T19:42:03;8.80;99.90
41168;DHT22;26906;45.658;9.272;2023-03-01T19:44:29;8.60;99.90
41168;DHT22;26906;45.658;9.272;2023-03-01T19:46:55;8.40;99.90
41168;DHT22;26906;45.658;9.272;2023-03-01T19:49:22;8.60;99.90
41168;DHT22;26906;45.658;9.272;2023-03-01T19:51:48;8.50;99.90
41168;DHT22;26906;45.658;9.272;2023-03-01T19:54:14;8.60;99.90
41168;DHT22;26906;45.658;9.272;2023-03-01T19:56:45;8.60;99.90
41168;DHT22;26906;45.658;9.272;2023-03-01T19:59:12;8.50;99.90
41168;DHT22;26906;45.658;9.272;2023-03-01T20:01:38;8.60;99.90
41168;DHT22;26906;45.658;9.272;2023-03-01T20:04:07;8.60;99.90
41168;DHT22;26906;45.658;9.272;2023-03-01T20:06:34;8.50;99.90
41168;DHT22;26906;45.658;9.272;2023-03-01T20:09:02;8.50;99.90
41168;DHT22;26906;45.658;9.272;2023-03-01T20:11:28;8.50;99.90
41168;DHT22;26906;45.658;9.272;2023-03-01T20:13:54;8.50;99.90
41168;DHT22;26906;45.658;9.272;2023-03-01T20:16:19;8.40;99.90
41168;DHT22;26906;45.658;9.272;2023-03-01T20:18:47;8.30;99.90
41168;DHT22;26906;45.658;9.272;2023-03-01T20:21:15;8.30;99.90
41168;DHT22;26906;45.658;9.272;2023-03-01T20:23:44;8.20;99.90
41168;DHT22;26906;45.658;9.272;2023-03-01T20:26:11;8.10;99.90
41168;DHT22;26906;45.658;9.272;2023-03-01T20:28:41;8.10;99.90
41168;DHT22;26906;45.658;9.272;2023-03-01T20:31:09;8.20;99.90
41168;DHT22;26906;45.658;9.272;2023-03-01T20:33:35;8.10;99.90
41168;DHT22;26906;45.658;9.272;2023-03-01T20:36:02;8.10;99.90
41168;DHT22;26906;45.658;9.272;2023-03-01T20:38:31;8.00;99.90
41168;DHT22;26906;45.658;9.272;2023-03-01T20:41:05;8.10;99.90
41168;DHT22;26906;45.658;9.272;2023-03-01T20:43:31;8.00;99.90
41168;DHT22;26906;45.658;9.272;2023-03-01T20:45:57;8.20;99.90
41168;DHT22;26906;45.658;9.272;2023-03-01T20:48:23;8.20;99.90
41168;DHT22;26906;45.658;9.272;2023-03-01T20:50:49;8.20;99.90
41168;DHT22;26906;45.658;9.272;2023-03-01T20:53:17;8.40;99.90
41168;DHT22;26906;45.658;9.272;2023-03-01T20:55:43;8.10;99.90
41168;DHT22;26906;45.658;9.272;2023-03-01T20:58:09;8.00;99.90
41168;DHT22;26906;45.658;9.272;2023-03-01T21:00:35;7.80;99.90
41168;DHT22;26906;45.658;9.272;2023-03-01T21:03:00;8.00;99.90
41168;DHT22;26906;45.658;9.272;2023-03-01T21:05:28;7.80;99.90
41168;DHT22;26906;45.658;9.272;2023-03-01T21:07:54;7.80;99.90
41168;DHT22;26906;45.658;9.272;2023-03-01T21:10:19;7.90;99.90
41168;DHT22;26906;45.658;9.272;2023-03-01T21:12:45;7.80;99.90
41168;DHT22;26906;45.658;9.272;2023-03-01T21:15:11;7.80;99.90
41168;DHT22;26906;45.658;9.272;2023-03-01T21:17:37;7.80;99.90
41168;DHT22;26906;45.658;9.272;2023-03-01T21:20:03;8.00;99.90
41168;DHT22;26906;45.658;9.272;2023-03-01T21:22:29;7.70;99.90
41168;DHT22;26906;45.658;9.272;2023-03-01T21:24:57;7.60;99.90
41168;DHT22;26906;45.658;9.272;2023-03-01T21:27:23;7.60;99.90
41168;DHT22;26906;45.658;9.272;2023-03-01T21:29:49;7.70;99.90
41168;DHT22;26906;45.658;9.272;2023-03-01T21:32:15;8.00;99.90
41168;DHT22;26906;45.658;9.272;2023-03-01T21:34:41;7.80;99.90
41168;DHT22;26906;45.658;9.272;2023-03-01T21:37:07;7.80;99.90
41168;DHT22;26906;45.658;9.272;2023-03-01T21:39:35;7.90;99.90
